createdAt,value
2022-10-09T00:01:32.044Z,101383.00
2022-10-09T00:04:00.579Z,101382.00
2022-10-09T00:06:31.619Z,101391.00
2022-10-09T00:09:04.677Z,101389.00
2022-10-09T00:11:34.049Z,101388.00
2022-10-09T00:14:02.257Z,101391.00
2022-10-09T00:16:32.331Z,101391.00
2022-10-09T00:19:00.392Z,101386.00
2022-10-09T00:21:31.839Z,101398.00
2022-10-09T00:24:01.225Z,101408.00
2022-10-09T00:26:29.366Z,101406.00
2022-10-09T00:28:59.820Z,101398.00
2022-10-09T00:31:27.718Z,101400.00
2022-10-09T00:33:55.681Z,101411.00
2022-10-09T00:36:25.590Z,101407.00
2022-10-09T00:38:54.942Z,101402.00
2022-10-09T00:41:25.568Z,101405.00
2022-10-09T00:43:58.860Z,101404.00
2022-10-09T00:46:53.512Z,101403.00
2022-10-09T00:49:32.828Z,101410.00
2022-10-09T00:52:04.150Z,101406.00
2022-10-09T00:54:33.836Z,101406.00
2022-10-09T00:57:01.755Z,101404.00
2022-10-09T00:59:29.907Z,101411.00
2022-10-09T01:01:57.970Z,101412.00
2022-10-09T01:04:25.995Z,101411.00
2022-10-09T01:07:11.628Z,101412.00
2022-10-09T01:09:54.417Z,101410.00
2022-10-09T01:12:25.761Z,101415.00
2022-10-09T01:15:37.825Z,101410.00
2022-10-09T01:18:11.414Z,101406.00
2022-10-09T01:21:10.371Z,101411.00
2022-10-09T01:24:03.986Z,101400.00
2022-10-09T01:26:43.723Z,101406.00
2022-10-09T01:29:12.415Z,101404.00
2022-10-09T01:31:47.198Z,101407.00
2022-10-09T01:34:16.322Z,101410.00
2022-10-09T01:36:44.580Z,101408.00
2022-10-09T01:39:18.940Z,101413.00
2022-10-09T01:41:48.292Z,101413.00
2022-10-09T01:44:24.925Z,101410.00
2022-10-09T01:46:54.900Z,101409.00
2022-10-09T01:49:47.897Z,101410.00
2022-10-09T01:52:26.388Z,101411.00
2022-10-09T01:55:03.553Z,101407.00
2022-10-09T01:57:48.924Z,101418.00
2022-10-09T02:00:17.320Z,101415.00
2022-10-09T02:02:46.438Z,101408.00
2022-10-09T02:05:24.921Z,101409.00
2022-10-09T02:07:54.061Z,101405.00
2022-10-09T02:10:22.675Z,101409.00
2022-10-09T02:12:59.479Z,101407.00
2022-10-09T02:15:57.585Z,101415.00
2022-10-09T02:18:46.674Z,101410.00
2022-10-09T02:21:17.797Z,101403.00
2022-10-09T02:23:47.524Z,101412.00
2022-10-09T02:26:15.463Z,101404.00
2022-10-09T02:28:45.996Z,101404.00
2022-10-09T02:31:27.339Z,101412.00
2022-10-09T02:33:59.643Z,101412.00
2022-10-09T02:36:28.227Z,101412.00
2022-10-09T02:43:09.932Z,101417.00
2022-10-09T02:45:37.685Z,101418.00
2022-10-09T02:48:05.631Z,101419.00
2022-10-09T02:50:33.309Z,101416.00
2022-10-09T02:53:00.998Z,101414.00
2022-10-09T02:55:28.706Z,101408.00
2022-10-09T02:57:56.376Z,101410.00
2022-10-09T03:00:24.127Z,101411.00
2022-10-09T03:02:52.438Z,101405.00
2022-10-09T03:05:20.523Z,101406.00
2022-10-09T03:07:51.785Z,101411.00
2022-10-09T03:10:20.999Z,101414.00
2022-10-09T03:12:49.225Z,101409.00
2022-10-09T03:15:17.515Z,101409.00
2022-10-09T03:17:45.206Z,101413.00
2022-10-09T03:20:12.880Z,101412.00
2022-10-09T03:22:40.679Z,101409.00
2022-10-09T03:25:09.048Z,101420.00
2022-10-09T03:27:36.808Z,101421.00
2022-10-09T03:30:05.568Z,101426.00
2022-10-09T03:32:35.593Z,101427.00
2022-10-09T03:35:03.368Z,101429.00
2022-10-09T03:37:31.822Z,101425.00
2022-10-09T03:39:59.978Z,101427.00
2022-10-09T03:42:29.223Z,101424.00
2022-10-09T03:45:00.910Z,101431.00
2022-10-09T03:47:28.615Z,101437.00
2022-10-09T03:49:56.315Z,101436.00
2022-10-09T03:52:24.249Z,101436.00
2022-10-09T03:54:52.124Z,101449.00
2022-10-09T03:57:19.954Z,101445.00
2022-10-09T03:59:47.677Z,101443.00
2022-10-09T04:02:15.436Z,101433.00
2022-10-09T04:04:43.261Z,101433.00
2022-10-09T04:07:11.080Z,101433.00
2022-10-09T04:09:38.841Z,101439.00
2022-10-09T04:12:09.163Z,101442.00
2022-10-09T04:14:36.915Z,101449.00
2022-10-09T04:17:04.810Z,101447.00
2022-10-09T04:19:33.380Z,101447.00
2022-10-09T04:22:01.076Z,101453.00
2022-10-09T04:24:28.897Z,101454.00
2022-10-09T04:26:57.121Z,101450.00
2022-10-09T04:29:24.871Z,101457.00
2022-10-09T04:31:53.003Z,101457.00
2022-10-09T04:34:20.924Z,101459.00
2022-10-09T04:36:48.649Z,101461.00
2022-10-09T04:39:16.384Z,101457.00
2022-10-09T04:41:44.127Z,101456.00
2022-10-09T04:44:11.966Z,101459.00
2022-10-09T04:46:39.715Z,101453.00
2022-10-09T04:49:07.285Z,101456.00
2022-10-09T04:51:34.958Z,101454.00
2022-10-09T04:54:03.179Z,101458.00
2022-10-09T04:56:31.077Z,101451.00
2022-10-09T04:58:58.919Z,101448.00
2022-10-09T05:01:31.899Z,101447.00
2022-10-09T05:04:01.997Z,101452.00
2022-10-09T05:06:29.709Z,101452.00
2022-10-09T05:08:57.651Z,101454.00
2022-10-09T05:11:26.540Z,101454.00
2022-10-09T05:13:58.958Z,101454.00
2022-10-09T05:16:29.156Z,101456.00
2022-10-09T05:18:58.924Z,101463.00
2022-10-09T05:21:27.867Z,101460.00
2022-10-09T05:23:56.181Z,101457.00
2022-10-09T05:26:26.571Z,101461.00
2022-10-09T05:28:54.556Z,101459.00
2022-10-09T05:31:28.482Z,101456.00
2022-10-09T05:33:59.565Z,101460.00
2022-10-09T05:36:27.397Z,101461.00
2022-10-09T05:38:55.696Z,101461.00
2022-10-09T05:41:23.796Z,101468.00
2022-10-09T05:43:53.466Z,101470.00
2022-10-09T05:46:25.916Z,101464.00
2022-10-09T05:48:55.867Z,101458.00
2022-10-09T05:51:26.729Z,101460.00
2022-10-09T05:53:55.551Z,101459.00
2022-10-09T05:56:25.925Z,101451.00
2022-10-09T05:58:58.521Z,101455.00
2022-10-09T06:01:29.282Z,101451.00
2022-10-09T06:03:58.482Z,101452.00
2022-10-09T06:06:28.565Z,101448.00
2022-10-09T06:08:57.110Z,101451.00
2022-10-09T06:11:36.213Z,101452.00
2022-10-09T06:14:06.357Z,101466.00
2022-10-09T06:16:39.202Z,101461.00
2022-10-09T06:19:08.709Z,101470.00
2022-10-09T06:21:36.542Z,101466.00
2022-10-09T06:24:05.928Z,101460.00
2022-10-09T06:26:34.252Z,101468.00
2022-10-09T06:29:02.769Z,101465.00
2022-10-09T06:31:32.410Z,101469.00
2022-10-09T06:34:03.670Z,101466.00
2022-10-09T06:36:33.811Z,101471.00
2022-10-09T06:39:03.587Z,101476.00
2022-10-09T06:41:31.515Z,101472.00
2022-10-09T06:44:07.738Z,101476.00
2022-10-09T06:46:38.050Z,101477.00
2022-10-09T06:49:07.958Z,101479.00
2022-10-09T06:51:36.616Z,101482.00
2022-10-09T06:54:09.417Z,101486.00
2022-10-09T06:56:37.135Z,101491.00
2022-10-09T06:59:06.837Z,101499.00
2022-10-09T07:01:35.384Z,101489.00
2022-10-09T07:04:09.850Z,101492.00
2022-10-09T07:06:44.422Z,101491.00
2022-10-09T07:09:13.809Z,101486.00
2022-10-09T07:11:44.567Z,101501.00
2022-10-09T07:14:14.091Z,101496.00
2022-10-09T07:16:44.613Z,101505.00
2022-10-09T07:19:14.024Z,101509.00
2022-10-09T07:21:43.821Z,101509.00
2022-10-09T07:24:12.920Z,101501.00
2022-10-09T07:26:43.649Z,101508.00
2022-10-09T07:29:12.703Z,101513.00
2022-10-09T07:31:40.722Z,101519.00
2022-10-09T07:34:08.930Z,101519.00
2022-10-09T07:36:36.968Z,101519.00
2022-10-09T07:39:06.226Z,101519.00
2022-10-09T07:41:37.098Z,101518.00
2022-10-09T07:44:04.916Z,101518.00
2022-10-09T07:46:34.116Z,101526.00
2022-10-09T07:49:03.257Z,101521.00
2022-10-09T07:51:32.040Z,101527.00
2022-10-09T07:54:02.152Z,101525.00
2022-10-09T07:56:32.768Z,101529.00
2022-10-09T07:59:03.934Z,101525.00
2022-10-09T08:01:33.727Z,101528.00
2022-10-09T08:04:02.545Z,101526.00
2022-10-09T08:06:30.818Z,101530.00
2022-10-09T08:08:59.874Z,101524.00
2022-10-09T08:11:28.797Z,101531.00
2022-10-09T08:13:57.133Z,101527.00
2022-10-09T08:16:27.643Z,101537.00
2022-10-09T08:18:59.952Z,101530.00
2022-10-09T08:21:28.810Z,101528.00
2022-10-09T08:23:58.734Z,101537.00
2022-10-09T08:26:28.638Z,101530.00
2022-10-09T08:29:04.454Z,101529.00
2022-10-09T08:31:33.027Z,101532.00
2022-10-09T08:34:02.959Z,101531.00
2022-10-09T08:36:31.382Z,101532.00
2022-10-09T08:38:59.338Z,101532.00
2022-10-09T08:41:42.752Z,101531.00
2022-10-09T08:44:29.755Z,101544.00
2022-10-09T08:47:12.924Z,101540.00
2022-10-09T08:50:09.447Z,101538.00
2022-10-09T08:52:45.713Z,101533.00
2022-10-09T08:55:23.372Z,101534.00
2022-10-09T08:57:53.656Z,101533.00
2022-10-09T09:00:24.049Z,101535.00
2022-10-09T09:03:20.742Z,101533.00
2022-10-09T09:06:13.455Z,101539.00
2022-10-09T09:09:01.450Z,101540.00
2022-10-09T09:11:47.909Z,101536.00
2022-10-09T09:14:24.572Z,101538.00
2022-10-09T09:17:09.784Z,101547.00
2022-10-09T09:19:46.671Z,101544.00
2022-10-09T09:22:15.698Z,101539.00
2022-10-09T09:24:52.040Z,101542.00
2022-10-09T09:27:22.150Z,101544.00
2022-10-09T09:29:56.348Z,101544.00
2022-10-09T09:32:26.827Z,101536.00
2022-10-09T09:35:18.561Z,101536.00
2022-10-09T09:37:46.499Z,101542.00
2022-10-09T09:43:26.265Z,101538.00
2022-10-09T09:45:55.741Z,101535.00
2022-10-09T09:48:42.400Z,101535.00
2022-10-09T09:51:31.435Z,101530.00
2022-10-09T09:54:06.178Z,101528.00
2022-10-09T09:56:59.691Z,101529.00
2022-10-09T09:59:44.841Z,101519.00
2022-10-09T10:02:19.759Z,101519.00
2022-10-09T10:05:01.786Z,101514.00
2022-10-09T10:07:38.110Z,101517.00
2022-10-09T10:10:26.853Z,101513.00
2022-10-09T10:12:57.390Z,101515.00
2022-10-09T10:15:27.871Z,101517.00
2022-10-09T10:18:03.355Z,101509.00
2022-10-09T10:20:33.562Z,101507.00
2022-10-09T10:23:01.957Z,101505.00
2022-10-09T10:25:34.781Z,101502.00
2022-10-09T10:28:15.903Z,101509.00
2022-10-09T10:30:44.170Z,101499.00
2022-10-09T10:33:25.414Z,101500.00
2022-10-09T10:35:54.240Z,101497.00
2022-10-09T10:38:33.934Z,101493.00
2022-10-09T10:41:24.839Z,101484.00
2022-10-09T10:44:00.359Z,101488.00
2022-10-09T10:47:04.545Z,101485.00
2022-10-09T10:49:33.962Z,101484.00
2022-10-09T10:52:20.220Z,101482.00
2022-10-09T10:54:58.876Z,101471.00
2022-10-09T10:57:52.554Z,101477.00
2022-10-09T11:00:20.511Z,101477.00
2022-10-09T11:03:06.308Z,101462.00
2022-10-09T11:05:56.209Z,101466.00
2022-10-09T11:08:45.492Z,101463.00
2022-10-09T11:11:27.358Z,101460.00
2022-10-09T11:14:29.076Z,101454.00
2022-10-09T11:17:18.284Z,101456.00
2022-10-09T11:19:52.472Z,101449.00
2022-10-09T11:22:54.191Z,101439.00
2022-10-09T11:25:43.018Z,101438.00
2022-10-09T11:28:15.511Z,101435.00
2022-10-09T11:30:59.817Z,101434.00
2022-10-09T11:33:42.773Z,101434.00
2022-10-09T11:36:17.510Z,101432.00
2022-10-09T11:38:49.402Z,101420.00
2022-10-09T11:41:17.496Z,101417.00
2022-10-09T11:44:03.966Z,101420.00
2022-10-09T11:46:47.607Z,101416.00
2022-10-09T11:49:25.769Z,101414.00
2022-10-09T11:52:24.920Z,101412.00
2022-10-09T11:54:52.774Z,101404.00
2022-10-09T11:57:30.379Z,101404.00
2022-10-09T12:00:09.593Z,101407.00
2022-10-09T12:02:38.215Z,101390.00
2022-10-09T12:05:29.870Z,101388.00
2022-10-09T12:08:18.260Z,101377.00
2022-10-09T12:11:00.348Z,101381.00
2022-10-09T12:13:31.144Z,101363.00
2022-10-09T12:16:00.109Z,101363.00
2022-10-09T12:18:29.138Z,101359.00
2022-10-09T12:20:58.401Z,101352.00
2022-10-09T12:23:30.175Z,101357.00
2022-10-09T12:25:58.532Z,101349.00
2022-10-09T12:28:47.263Z,101343.00
2022-10-09T12:31:36.336Z,101343.00
2022-10-09T12:34:18.196Z,101341.00
2022-10-09T12:36:45.976Z,101332.00
2022-10-09T12:39:24.112Z,101331.00
2022-10-09T12:41:55.064Z,101327.00
2022-10-09T12:44:31.814Z,101341.00
2022-10-09T12:47:08.713Z,101333.00
2022-10-09T12:49:36.979Z,101333.00
2022-10-09T12:52:04.944Z,101324.00
2022-10-09T12:54:32.926Z,101329.00
2022-10-09T12:57:01.105Z,101322.00
2022-10-09T12:59:29.099Z,101317.00
2022-10-09T13:02:00.219Z,101314.00
2022-10-09T13:04:31.273Z,101317.00
2022-10-09T13:07:02.795Z,101311.00
2022-10-09T13:09:40.788Z,101306.00
2022-10-09T13:12:21.519Z,101293.00
2022-10-09T13:14:52.059Z,101299.00
2022-10-09T13:20:00.961Z,101299.00
2022-10-09T13:22:33.616Z,101294.00
2022-10-09T13:25:04.439Z,101295.00
2022-10-09T13:27:39.030Z,101293.00
2022-10-09T13:30:07.643Z,101285.00
2022-10-09T13:32:35.454Z,101280.00
2022-10-09T13:35:03.371Z,101278.00
2022-10-09T13:37:31.111Z,101278.00
2022-10-09T13:40:00.416Z,101285.00
2022-10-09T13:42:32.916Z,101282.00
2022-10-09T13:45:00.871Z,101277.00
2022-10-09T13:47:28.811Z,101278.00
2022-10-09T13:49:56.622Z,101280.00
2022-10-09T13:52:24.258Z,101276.00
2022-10-09T13:54:52.055Z,101272.00
2022-10-09T13:57:19.929Z,101269.00
2022-10-09T13:59:47.893Z,101264.00
2022-10-09T14:02:15.732Z,101267.00
2022-10-09T14:04:43.602Z,101256.00
2022-10-09T14:07:11.371Z,101254.00
2022-10-09T14:09:39.171Z,101247.00
2022-10-09T14:12:07.295Z,101251.00
2022-10-09T14:14:35.219Z,101242.00
2022-10-09T14:17:03.138Z,101244.00
2022-10-09T14:19:30.976Z,101233.00
2022-10-09T14:22:00.288Z,101239.00
2022-10-09T14:24:28.161Z,101229.00
2022-10-09T14:26:55.927Z,101226.00
2022-10-09T14:29:23.663Z,101227.00
2022-10-09T14:31:52.263Z,101220.00
2022-10-09T14:34:20.159Z,101220.00
2022-10-09T14:36:48.974Z,101206.00
2022-10-09T14:39:17.181Z,101214.00
2022-10-09T14:41:46.019Z,101205.00
2022-10-09T14:44:14.195Z,101197.00
2022-10-09T14:46:42.181Z,101199.00
2022-10-09T14:49:10.506Z,101199.00
2022-10-09T14:51:39.871Z,101190.00
2022-10-09T14:54:08.956Z,101179.00
2022-10-09T14:56:36.992Z,101180.00
2022-10-09T14:59:06.201Z,101184.00
2022-10-09T15:01:34.937Z,101178.00
2022-10-09T15:04:04.271Z,101177.00
2022-10-09T15:06:33.653Z,101173.00
2022-10-09T15:09:04.840Z,101171.00
2022-10-09T15:11:34.415Z,101165.00
2022-10-09T15:14:02.986Z,101166.00
2022-10-09T15:16:30.950Z,101159.00
2022-10-09T15:19:01.136Z,101164.00
2022-10-09T15:21:32.024Z,101160.00
2022-10-09T15:24:01.396Z,101160.00
2022-10-09T15:26:33.160Z,101153.00
2022-10-09T15:29:03.444Z,101156.00
2022-10-09T15:31:34.052Z,101154.00
2022-10-09T15:34:02.605Z,101148.00
2022-10-09T15:36:35.011Z,101145.00
2022-10-09T15:39:06.011Z,101147.00
2022-10-09T15:41:34.784Z,101135.00
2022-10-09T15:44:07.904Z,101132.00
2022-10-09T15:46:35.950Z,101131.00
2022-10-09T15:49:03.980Z,101121.00
2022-10-09T15:51:33.409Z,101124.00
2022-10-09T15:54:01.558Z,101120.00
2022-10-09T15:56:29.660Z,101120.00
2022-10-09T15:58:58.378Z,101120.00
2022-10-09T16:01:26.886Z,101113.00
2022-10-09T16:03:54.678Z,101118.00
2022-10-09T16:06:24.318Z,101119.00
2022-10-09T16:08:54.915Z,101111.00
2022-10-09T16:11:25.190Z,101109.00
2022-10-09T16:13:55.796Z,101106.00
2022-10-09T16:16:25.490Z,101101.00
2022-10-09T16:18:54.035Z,101104.00
2022-10-09T16:21:23.925Z,101099.00
2022-10-09T16:23:57.316Z,101099.00
2022-10-09T16:26:27.076Z,101089.00
2022-10-09T16:28:55.029Z,101091.00
2022-10-09T16:31:28.754Z,101095.00
2022-10-09T16:33:57.246Z,101083.00
2022-10-09T16:36:24.974Z,101087.00
2022-10-09T16:38:52.688Z,101087.00
2022-10-09T16:41:22.482Z,101092.00
2022-10-09T16:43:53.497Z,101094.00
2022-10-09T16:46:24.441Z,101092.00
2022-10-09T16:48:53.407Z,101094.00
2022-10-09T16:51:23.833Z,101088.00
2022-10-09T16:53:53.130Z,101092.00
2022-10-09T16:56:25.615Z,101087.00
2022-10-09T16:59:01.546Z,101092.00
2022-10-09T17:01:30.266Z,101086.00
2022-10-09T17:03:59.552Z,101088.00
2022-10-09T17:06:28.084Z,101086.00
2022-10-09T17:08:57.802Z,101090.00
2022-10-09T17:11:27.097Z,101081.00
2022-10-09T17:13:56.992Z,101075.00
2022-10-09T17:16:27.199Z,101076.00
2022-10-09T17:18:55.207Z,101074.00
2022-10-09T17:21:23.468Z,101075.00
2022-10-09T17:23:56.134Z,101079.00
2022-10-09T17:26:27.681Z,101071.00
2022-10-09T17:28:56.961Z,101069.00
2022-10-09T17:31:25.844Z,101067.00
2022-10-09T17:33:59.943Z,101073.00
2022-10-09T17:36:29.917Z,101075.00
2022-10-09T17:38:58.210Z,101065.00
2022-10-09T17:41:27.313Z,101069.00
2022-10-09T17:43:56.084Z,101070.00
2022-10-09T17:46:24.771Z,101069.00
2022-10-09T17:48:57.110Z,101069.00
2022-10-09T17:51:30.205Z,101065.00
2022-10-09T17:54:01.449Z,101070.00
2022-10-09T17:56:29.937Z,101070.00
2022-10-09T17:58:59.864Z,101064.00
2022-10-09T18:01:28.281Z,101062.00
2022-10-09T18:03:56.470Z,101067.00
2022-10-09T18:06:27.410Z,101063.00
2022-10-09T18:08:56.006Z,101056.00
2022-10-09T18:11:25.044Z,101052.00
2022-10-09T18:13:53.824Z,101045.00
2022-10-09T18:16:25.186Z,101046.00
2022-10-09T18:18:52.966Z,101049.00
2022-10-09T18:21:21.147Z,101040.00
2022-10-09T18:23:49.102Z,101049.00
2022-10-09T18:26:19.538Z,101050.00
2022-10-09T18:28:48.613Z,101048.00
2022-10-09T18:31:19.747Z,101049.00
2022-10-09T18:33:47.739Z,101044.00
2022-10-09T18:36:21.397Z,101036.00
2022-10-09T18:38:59.271Z,101040.00
2022-10-09T18:41:27.120Z,101036.00
2022-10-09T18:43:55.036Z,101032.00
2022-10-09T18:46:26.287Z,101032.00
2022-10-09T18:48:55.618Z,101030.00
2022-10-09T18:51:25.233Z,101029.00
2022-10-09T18:53:57.400Z,101023.00
2022-10-09T18:56:25.691Z,101024.00
2022-10-09T18:58:54.066Z,101034.00
2022-10-09T19:01:21.910Z,101031.00
2022-10-09T19:03:50.367Z,101023.00
2022-10-09T19:06:19.427Z,101027.00
2022-10-09T19:08:47.564Z,101023.00
2022-10-09T19:11:15.420Z,101030.00
2022-10-09T19:13:44.560Z,101023.00
2022-10-09T19:16:12.587Z,101023.00
2022-10-09T19:18:40.412Z,101015.00
2022-10-09T19:21:12.110Z,101014.00
2022-10-09T19:23:43.058Z,101004.00
2022-10-09T19:26:13.825Z,101003.00
2022-10-09T19:28:41.717Z,101000.00
2022-10-09T19:31:11.439Z,100990.00
2022-10-09T19:33:40.123Z,100989.00
2022-10-09T19:36:10.007Z,100989.00
2022-10-09T19:38:37.875Z,100992.00
2022-10-09T19:41:07.762Z,100979.00
2022-10-09T19:43:36.357Z,100975.00
2022-10-09T19:46:17.329Z,100974.00
2022-10-09T19:48:46.059Z,100963.00
2022-10-09T19:51:25.542Z,100975.00
2022-10-09T19:53:54.907Z,100977.00
2022-10-09T19:56:26.645Z,100971.00
2022-10-09T19:58:55.679Z,100971.00
2022-10-09T20:01:25.300Z,100965.00
2022-10-09T20:04:04.992Z,100956.00
2022-10-09T20:06:32.715Z,100956.00
2022-10-09T20:09:01.188Z,100945.00
2022-10-09T20:11:29.011Z,100953.00
2022-10-09T20:13:56.789Z,100942.00
2022-10-09T20:16:25.753Z,100946.00
2022-10-09T20:18:55.239Z,100941.00
2022-10-09T20:21:23.203Z,100946.00
2022-10-09T20:23:51.934Z,100941.00
2022-10-09T20:26:21.910Z,100940.00
2022-10-09T20:28:50.251Z,100938.00
2022-10-09T20:31:20.989Z,100935.00
2022-10-09T20:33:50.949Z,100929.00
2022-10-09T20:36:27.477Z,100928.00
2022-10-09T20:38:57.304Z,100930.00
2022-10-09T20:41:26.204Z,100926.00
2022-10-09T20:43:55.233Z,100925.00
2022-10-09T20:46:24.193Z,100914.00
2022-10-09T20:48:52.942Z,100923.00
2022-10-09T20:51:21.483Z,100912.00
2022-10-09T20:53:59.711Z,100915.00
2022-10-09T20:56:32.533Z,100910.00
2022-10-09T20:59:00.993Z,100911.00
2022-10-09T21:01:29.474Z,100903.00
2022-10-09T21:03:59.441Z,100908.00
2022-10-09T21:06:27.841Z,100899.00
2022-10-09T21:08:56.910Z,100895.00
2022-10-09T21:11:25.334Z,100894.00
2022-10-09T21:13:53.667Z,100889.00
2022-10-09T21:16:24.362Z,100892.00
2022-10-09T21:19:00.181Z,100888.00
2022-10-09T21:21:29.227Z,100886.00
2022-10-09T21:23:59.009Z,100884.00
2022-10-09T21:26:27.705Z,100880.00
2022-10-09T21:28:59.635Z,100878.00
2022-10-09T21:31:30.082Z,100872.00
2022-10-09T21:33:59.118Z,100870.00
2022-10-09T21:37:08.909Z,100864.00
2022-10-09T21:39:36.561Z,100862.00
2022-10-09T21:42:04.332Z,100860.00
2022-10-09T21:44:32.217Z,100856.00
2022-10-09T21:46:59.985Z,100854.00
2022-10-09T21:49:28.595Z,100844.00
2022-10-09T21:51:57.068Z,100844.00
2022-10-09T21:54:25.051Z,100835.00
2022-10-09T21:56:52.902Z,100825.00
2022-10-09T21:59:22.974Z,100828.00
2022-10-09T22:01:50.641Z,100823.00
2022-10-09T22:04:18.304Z,100825.00
2022-10-09T22:06:48.782Z,100824.00
2022-10-09T22:09:16.586Z,100821.00
2022-10-09T22:11:45.075Z,100812.00
2022-10-09T22:14:13.069Z,100811.00
2022-10-09T22:16:40.883Z,100806.00
2022-10-09T22:19:08.645Z,100812.00
2022-10-09T22:21:36.626Z,100806.00
2022-10-09T22:24:07.597Z,100797.00
2022-10-09T22:26:35.323Z,100805.00
2022-10-09T22:29:03.128Z,100797.00
2022-10-09T22:31:30.860Z,100799.00
2022-10-09T22:34:01.039Z,100797.00
2022-10-09T22:36:31.454Z,100798.00
2022-10-09T22:39:01.190Z,100792.00
2022-10-09T22:41:29.829Z,100798.00
2022-10-09T22:44:01.617Z,100788.00
2022-10-09T22:46:35.393Z,100784.00
2022-10-09T22:49:03.568Z,100792.00
2022-10-09T22:51:31.340Z,100787.00
2022-10-09T22:54:00.131Z,100786.00
2022-10-09T22:56:33.780Z,100786.00
2022-10-09T22:59:03.608Z,100782.00
2022-10-09T23:01:39.808Z,100786.00
2022-10-09T23:04:10.344Z,100781.00
2022-10-09T23:06:38.150Z,100790.00
2022-10-09T23:09:07.531Z,100785.00
2022-10-09T23:11:36.017Z,100780.00
2022-10-09T23:14:04.280Z,100779.00
2022-10-09T23:16:32.656Z,100781.00
2022-10-09T23:19:06.075Z,100775.00
2022-10-09T23:21:35.183Z,100779.00
2022-10-09T23:24:02.976Z,100769.00
2022-10-09T23:26:33.029Z,100774.00
2022-10-09T23:29:07.592Z,100767.00
2022-10-09T23:31:36.116Z,100766.00
2022-10-09T23:34:05.482Z,100758.00
2022-10-09T23:36:33.365Z,100762.00
2022-10-09T23:39:02.471Z,100757.00
2022-10-09T23:41:30.898Z,100761.00
2022-10-09T23:43:59.026Z,100765.00
2022-10-09T23:46:29.551Z,100754.00
2022-10-09T23:48:57.794Z,100761.00
2022-10-09T23:51:26.408Z,100759.00
2022-10-09T23:53:56.613Z,100763.00
2022-10-09T23:56:33.449Z,100756.00
2022-10-09T23:59:02.390Z,100759.00
